EGNT - Newcastle
Distance from station: E 5mi, 14km
Updated: 02/22/2018 5:50pm
Clear
Clear
 Wind from SE
Wind: SE 5 mph , 7 km/h
Temperature: 27°F , -3°C
Wind Chill: 21°F , -6°C
Dew Point: 25°F , -4°C
Humidity: 93%
Barometer: 30.24 inHg , 1024 hPa
Summary: Clear
Visibility: greater than 7 miles , 10 km
2018/02/23 01:50 EGNT 230150Z 14004KT CAVOK M03/M04 Q1024